sensor_id;sensor_type;location;lat;lon;timestamp;P1;durP1;ratioP1;P2;durP2;ratioP2
41077;SDS011;26823;42.662;23.352;2023-09-18T00:02:24;24.75;;;20.90;;
41077;SDS011;26823;42.662;23.352;2023-09-18T00:04:50;24.13;;;21.58;;
41077;SDS011;26823;42.662;23.352;2023-09-18T00:07:15;27.70;;;21.63;;
41077;SDS011;26823;42.662;23.352;2023-09-18T00:09:41;26.42;;;22.35;;
41077;SDS011;26823;42.662;23.352;2023-09-18T00:12:06;26.50;;;23.20;;
41077;SDS011;26823;42.662;23.352;2023-09-18T00:14:32;24.98;;;22.33;;
41077;SDS011;26823;42.662;23.352;2023-09-18T00:16:57;28.58;;;23.23;;
41077;SDS011;26823;42.662;23.352;2023-09-18T00:19:23;27.52;;;22.73;;
41077;SDS011;26823;42.662;23.352;2023-09-18T00:21:49;27.17;;;22.38;;
41077;SDS011;26823;42.662;23.352;2023-09-18T00:24:14;27.90;;;24.20;;
41077;SDS011;26823;42.662;23.352;2023-09-18T00:26:39;31.83;;;23.70;;
41077;SDS011;26823;42.662;23.352;2023-09-18T00:29:05;26.42;;;23.13;;
41077;SDS011;26823;42.662;23.352;2023-09-18T00:31:30;30.58;;;24.40;;
41077;SDS011;26823;42.662;23.352;2023-09-18T00:33:55;26.70;;;23.88;;
41077;SDS011;26823;42.662;23.352;2023-09-18T00:36:21;28.25;;;24.15;;
41077;SDS011;26823;42.662;23.352;2023-09-18T00:38:46;32.38;;;24.27;;
41077;SDS011;26823;42.662;23.352;2023-09-18T00:41:12;29.08;;;25.45;;
41077;SDS011;26823;42.662;23.352;2023-09-18T00:43:37;28.27;;;25.23;;
41077;SDS011;26823;42.662;23.352;2023-09-18T00:46:03;31.52;;;25.38;;
41077;SDS011;26823;42.662;23.352;2023-09-18T00:48:28;28.23;;;25.23;;
41077;SDS011;26823;42.662;23.352;2023-09-18T00:50:54;32.90;;;25.88;;
41077;SDS011;26823;42.662;23.352;2023-09-18T00:53:22;31.42;;;23.98;;
41077;SDS011;26823;42.662;23.352;2023-09-18T00:55:50;31.17;;;24.85;;
41077;SDS011;26823;42.662;23.352;2023-09-18T00:58:20;27.83;;;24.83;;
41077;SDS011;26823;42.662;23.352;2023-09-18T01:00:47;29.65;;;24.23;;
41077;SDS011;26823;42.662;23.352;2023-09-18T01:03:16;27.35;;;23.83;;
41077;SDS011;26823;42.662;23.352;2023-09-18T01:05:43;28.73;;;23.63;;
41077;SDS011;26823;42.662;23.352;2023-09-18T01:08:09;27.55;;;22.58;;
41077;SDS011;26823;42.662;23.352;2023-09-18T01:14:16;22.40;;;19.35;;
41077;SDS011;26823;42.662;23.352;2023-09-18T01:17:05;24.52;;;21.70;;
41077;SDS011;26823;42.662;23.352;2023-09-18T01:22:01;25.92;;;21.13;;
41077;SDS011;26823;42.662;23.352;2023-09-18T01:24:27;27.00;;;20.42;;
41077;SDS011;26823;42.662;23.352;2023-09-18T01:26:52;21.52;;;18.55;;
41077;SDS011;26823;42.662;23.352;2023-09-18T01:29:18;19.75;;;17.65;;
41077;SDS011;26823;42.662;23.352;2023-09-18T01:31:44;21.27;;;17.90;;
41077;SDS011;26823;42.662;23.352;2023-09-18T01:34:13;20.50;;;18.40;;
41077;SDS011;26823;42.662;23.352;2023-09-18T01:36:43;19.23;;;17.23;;
41077;SDS011;26823;42.662;23.352;2023-09-18T01:39:10;18.45;;;16.65;;
41077;SDS011;26823;42.662;23.352;2023-09-18T01:41:37;19.38;;;17.33;;
41077;SDS011;26823;42.662;23.352;2023-09-18T01:44:04;18.90;;;16.10;;
41077;SDS011;26823;42.662;23.352;2023-09-18T01:46:30;21.50;;;16.27;;
41077;SDS011;26823;42.662;23.352;2023-09-18T01:49:01;19.20;;;16.73;;
41077;SDS011;26823;42.662;23.352;2023-09-18T01:51:27;19.33;;;17.05;;
41077;SDS011;26823;42.662;23.352;2023-09-18T01:53:53;19.13;;;16.98;;
41077;SDS011;26823;42.662;23.352;2023-09-18T01:56:19;18.83;;;16.45;;
41077;SDS011;26823;42.662;23.352;2023-09-18T01:58:45;24.05;;;17.90;;
41077;SDS011;26823;42.662;23.352;2023-09-18T02:01:10;22.27;;;19.58;;
41077;SDS011;26823;42.662;23.352;2023-09-18T02:03:35;19.95;;;17.90;;
41077;SDS011;26823;42.662;23.352;2023-09-18T02:06:01;20.65;;;17.73;;
41077;SDS011;26823;42.662;23.352;2023-09-18T02:08:26;20.02;;;17.95;;
41077;SDS011;26823;42.662;23.352;2023-09-18T02:10:52;22.25;;;18.83;;
41077;SDS011;26823;42.662;23.352;2023-09-18T02:13:17;20.60;;;17.92;;
41077;SDS011;26823;42.662;23.352;2023-09-18T02:15:43;21.65;;;18.50;;
41077;SDS011;26823;42.662;23.352;2023-09-18T02:18:09;21.15;;;17.73;;
41077;SDS011;26823;42.662;23.352;2023-09-18T02:20:41;20.52;;;18.35;;
41077;SDS011;26823;42.662;23.352;2023-09-18T02:23:06;20.85;;;17.80;;
41077;SDS011;26823;42.662;23.352;2023-09-18T02:25:32;20.50;;;18.35;;
41077;SDS011;26823;42.662;23.352;2023-09-18T02:27:57;21.20;;;18.83;;
41077;SDS011;26823;42.662;23.352;2023-09-18T02:30:22;21.60;;;18.80;;
41077;SDS011;26823;42.662;23.352;2023-09-18T02:32:48;22.55;;;18.77;;
41077;SDS011;26823;42.662;23.352;2023-09-18T02:35:14;21.25;;;19.02;;
41077;SDS011;26823;42.662;23.352;2023-09-18T02:37:39;26.95;;;19.27;;
41077;SDS011;26823;42.662;23.352;2023-09-18T02:40:05;19.35;;;17.27;;
41077;SDS011;26823;42.662;23.352;2023-09-18T02:42:30;18.30;;;16.35;;
41077;SDS011;26823;42.662;23.352;2023-09-18T02:44:56;19.98;;;17.77;;
41077;SDS011;26823;42.662;23.352;2023-09-18T02:47:21;17.83;;;15.90;;
41077;SDS011;26823;42.662;23.352;2023-09-18T02:49:46;20.50;;;16.30;;
41077;SDS011;26823;42.662;23.352;2023-09-18T02:52:12;18.23;;;16.08;;
41077;SDS011;26823;42.662;23.352;2023-09-18T02:54:37;18.48;;;16.40;;
41077;SDS011;26823;42.662;23.352;2023-09-18T02:57:03;19.33;;;16.10;;
41077;SDS011;26823;42.662;23.352;2023-09-18T02:59:28;18.23;;;15.60;;
41077;SDS011;26823;42.662;23.352;2023-09-18T03:01:54;17.58;;;15.73;;
41077;SDS011;26823;42.662;23.352;2023-09-18T03:04:19;18.15;;;16.08;;
41077;SDS011;26823;42.662;23.352;2023-09-18T03:06:45;21.90;;;17.70;;
41077;SDS011;26823;42.662;23.352;2023-09-18T03:09:10;20.90;;;16.88;;
41077;SDS011;26823;42.662;23.352;2023-09-18T03:11:36;21.73;;;17.85;;
41077;SDS011;26823;42.662;23.352;2023-09-18T03:14:01;22.08;;;17.00;;
41077;SDS011;26823;42.662;23.352;2023-09-18T03:16:26;21.13;;;17.60;;
41077;SDS011;26823;42.662;23.352;2023-09-18T03:18:52;20.25;;;18.13;;
41077;SDS011;26823;42.662;23.352;2023-09-18T03:21:17;19.10;;;17.20;;
41077;SDS011;26823;42.662;23.352;2023-09-18T03:23:42;20.17;;;17.92;;
41077;SDS011;26823;42.662;23.352;2023-09-18T03:26:08;18.58;;;16.73;;
41077;SDS011;26823;42.662;23.352;2023-09-18T03:28:33;23.08;;;16.55;;
41077;SDS011;26823;42.662;23.352;2023-09-18T03:30:59;21.48;;;17.33;;
41077;SDS011;26823;42.662;23.352;2023-09-18T03:33:24;19.63;;;17.55;;
41077;SDS011;26823;42.662;23.352;2023-09-18T03:35:50;20.15;;;17.98;;
41077;SDS011;26823;42.662;23.352;2023-09-18T03:38:19;19.80;;;17.80;;
41077;SDS011;26823;42.662;23.352;2023-09-18T03:40:45;21.98;;;18.17;;
41077;SDS011;26823;42.662;23.352;2023-09-18T03:43:11;20.67;;;18.23;;
41077;SDS011;26823;42.662;23.352;2023-09-18T03:45:43;21.65;;;19.05;;
41077;SDS011;26823;42.662;23.352;2023-09-18T03:48:09;22.58;;;17.73;;
41077;SDS011;26823;42.662;23.352;2023-09-18T03:50:35;23.65;;;18.90;;
41077;SDS011;26823;42.662;23.352;2023-09-18T03:53:00;24.50;;;19.77;;
41077;SDS011;26823;42.662;23.352;2023-09-18T03:55:26;21.83;;;19.35;;
41077;SDS011;26823;42.662;23.352;2023-09-18T03:57:52;26.05;;;20.15;;
41077;SDS011;26823;42.662;23.352;2023-09-18T04:00:17;25.95;;;20.30;;
41077;SDS011;26823;42.662;23.352;2023-09-18T04:02:43;26.20;;;19.20;;
41077;SDS011;26823;42.662;23.352;2023-09-18T04:05:08;26.65;;;19.75;;
41077;SDS011;26823;42.662;23.352;2023-09-18T04:07:34;26.40;;;19.98;;
41077;SDS011;26823;42.662;23.352;2023-09-18T04:10:00;27.55;;;20.95;;
41077;SDS011;26823;42.662;23.352;2023-09-18T04:12:32;25.20;;;20.90;;
41077;SDS011;26823;42.662;23.352;2023-09-18T04:14:58;22.58;;;20.17;;
41077;SDS011;26823;42.662;23.352;2023-09-18T04:17:23;25.40;;;21.88;;
41077;SDS011;26823;42.662;23.352;2023-09-18T04:19:49;28.35;;;21.80;;
41077;SDS011;26823;42.662;23.352;2023-09-18T04:22:14;28.55;;;21.08;;
41077;SDS011;26823;42.662;23.352;2023-09-18T04:24:40;28.85;;;22.40;;
41077;SDS011;26823;42.662;23.352;2023-09-18T04:27:05;28.95;;;22.58;;
41077;SDS011;26823;42.662;23.352;2023-09-18T04:29:31;28.27;;;22.52;;
41077;SDS011;26823;42.662;23.352;2023-09-18T04:31:57;30.02;;;22.38;;
41077;SDS011;26823;42.662;23.352;2023-09-18T04:34:22;27.20;;;21.45;;
41077;SDS011;26823;42.662;23.352;2023-09-18T04:36:48;27.50;;;21.45;;
41077;SDS011;26823;42.662;23.352;2023-09-18T04:39:14;26.83;;;20.88;;
41077;SDS011;26823;42.662;23.352;2023-09-18T04:41:39;26.05;;;20.48;;
41077;SDS011;26823;42.662;23.352;2023-09-18T04:44:04;25.23;;;19.98;;
41077;SDS011;26823;42.662;23.352;2023-09-18T04:46:30;25.90;;;20.42;;
41077;SDS011;26823;42.662;23.352;2023-09-18T04:48:55;25.75;;;20.45;;
41077;SDS011;26823;42.662;23.352;2023-09-18T04:51:21;25.17;;;20.80;;
41077;SDS011;26823;42.662;23.352;2023-09-18T04:53:46;28.60;;;21.00;;
41077;SDS011;26823;42.662;23.352;2023-09-18T04:56:12;25.52;;;20.55;;
41077;SDS011;26823;42.662;23.352;2023-09-18T04:58:38;29.02;;;20.98;;
41077;SDS011;26823;42.662;23.352;2023-09-18T05:01:03;25.00;;;20.88;;
41077;SDS011;26823;42.662;23.352;2023-09-18T05:03:35;27.65;;;19.80;;
41077;SDS011;26823;42.662;23.352;2023-09-18T05:06:01;31.33;;;22.05;;
41077;SDS011;26823;42.662;23.352;2023-09-18T05:08:30;32.40;;;21.17;;
41077;SDS011;26823;42.662;23.352;2023-09-18T05:10:56;28.83;;;21.30;;
41077;SDS011;26823;42.662;23.352;2023-09-18T05:13:22;28.30;;;21.00;;
41077;SDS011;26823;42.662;23.352;2023-09-18T05:15:48;28.25;;;21.60;;
41077;SDS011;26823;42.662;23.352;2023-09-18T05:18:13;27.05;;;20.35;;
41077;SDS011;26823;42.662;23.352;2023-09-18T05:20:39;33.35;;;21.85;;
41077;SDS011;26823;42.662;23.352;2023-09-18T05:23:05;28.85;;;20.30;;
41077;SDS011;26823;42.662;23.352;2023-09-18T05:25:30;28.42;;;20.92;;
41077;SDS011;26823;42.662;23.352;2023-09-18T05:27:57;27.10;;;20.02;;
41077;SDS011;26823;42.662;23.352;2023-09-18T05:30:28;30.20;;;21.63;;
41077;SDS011;26823;42.662;23.352;2023-09-18T05:32:56;27.77;;;21.17;;
41077;SDS011;26823;42.662;23.352;2023-09-18T05:35:22;27.90;;;21.35;;
41077;SDS011;26823;42.662;23.352;2023-09-18T05:37:48;30.35;;;20.48;;
41077;SDS011;26823;42.662;23.352;2023-09-18T05:40:14;28.08;;;21.02;;
41077;SDS011;26823;42.662;23.352;2023-09-18T05:42:41;27.67;;;20.65;;
41077;SDS011;26823;42.662;23.352;2023-09-18T05:45:13;26.50;;;21.00;;
41077;SDS011;26823;42.662;23.352;2023-09-18T05:47:40;27.17;;;20.67;;
41077;SDS011;26823;42.662;23.352;2023-09-18T05:50:10;28.52;;;20.88;;
41077;SDS011;26823;42.662;23.352;2023-09-18T05:52:41;29.70;;;21.83;;
41077;SDS011;26823;42.662;23.352;2023-09-18T05:55:07;25.80;;;19.92;;
41077;SDS011;26823;42.662;23.352;2023-09-18T05:57:33;27.70;;;19.67;;
41077;SDS011;26823;42.662;23.352;2023-09-18T05:59:59;27.08;;;19.25;;
41077;SDS011;26823;42.662;23.352;2023-09-18T06:02:25;27.15;;;19.40;;
41077;SDS011;26823;42.662;23.352;2023-09-18T06:04:54;25.85;;;18.42;;
41077;SDS011;26823;42.662;23.352;2023-09-18T06:07:27;25.27;;;19.00;;
41077;SDS011;26823;42.662;23.352;2023-09-18T06:09:53;25.08;;;18.83;;
41077;SDS011;26823;42.662;23.352;2023-09-18T06:12:19;22.83;;;18.15;;
41077;SDS011;26823;42.662;23.352;2023-09-18T06:14:44;22.02;;;18.23;;
41077;SDS011;26823;42.662;23.352;2023-09-18T06:17:11;18.70;;;16.05;;
41077;SDS011;26823;42.662;23.352;2023-09-18T06:19:37;19.25;;;15.65;;
41077;SDS011;26823;42.662;23.352;2023-09-18T06:22:02;19.92;;;15.48;;
41077;SDS011;26823;42.662;23.352;2023-09-18T06:24:28;23.45;;;16.17;;
41077;SDS011;26823;42.662;23.352;2023-09-18T06:26:53;21.83;;;16.45;;
41077;SDS011;26823;42.662;23.352;2023-09-18T06:29:19;18.98;;;14.45;;
41077;SDS011;26823;42.662;23.352;2023-09-18T06:31:44;18.80;;;14.95;;
41077;SDS011;26823;42.662;23.352;2023-09-18T06:34:10;18.08;;;14.45;;
41077;SDS011;26823;42.662;23.352;2023-09-18T06:36:35;19.98;;;13.85;;
41077;SDS011;26823;42.662;23.352;2023-09-18T06:39:02;21.90;;;15.05;;
41077;SDS011;26823;42.662;23.352;2023-09-18T06:41:27;20.02;;;14.93;;
41077;SDS011;26823;42.662;23.352;2023-09-18T06:43:53;16.25;;;14.02;;
41077;SDS011;26823;42.662;23.352;2023-09-18T06:46:18;21.55;;;15.73;;
41077;SDS011;26823;42.662;23.352;2023-09-18T06:48:44;20.48;;;15.15;;
41077;SDS011;26823;42.662;23.352;2023-09-18T06:51:10;19.50;;;15.27;;
41077;SDS011;26823;42.662;23.352;2023-09-18T06:53:36;17.90;;;14.50;;
41077;SDS011;26823;42.662;23.352;2023-09-18T06:56:01;19.08;;;15.52;;
41077;SDS011;26823;42.662;23.352;2023-09-18T06:58:27;21.27;;;16.45;;
41077;SDS011;26823;42.662;23.352;2023-09-18T07:00:52;19.60;;;15.02;;
41077;SDS011;26823;42.662;23.352;2023-09-18T07:03:17;20.90;;;16.02;;
41077;SDS011;26823;42.662;23.352;2023-09-18T07:05:43;20.55;;;14.75;;
41077;SDS011;26823;42.662;23.352;2023-09-18T07:08:09;22.52;;;17.02;;
41077;SDS011;26823;42.662;23.352;2023-09-18T07:10:37;18.05;;;14.02;;
41077;SDS011;26823;42.662;23.352;2023-09-18T07:13:03;21.23;;;17.95;;
41077;SDS011;26823;42.662;23.352;2023-09-18T07:15:28;19.88;;;15.55;;
41077;SDS011;26823;42.662;23.352;2023-09-18T07:17:54;16.65;;;14.52;;
41077;SDS011;26823;42.662;23.352;2023-09-18T07:20:19;19.85;;;14.77;;
41077;SDS011;26823;42.662;23.352;2023-09-18T07:22:47;20.23;;;15.38;;
41077;SDS011;26823;42.662;23.352;2023-09-18T07:25:13;20.42;;;15.57;;
41077;SDS011;26823;42.662;23.352;2023-09-18T07:27:39;19.25;;;15.38;;
41077;SDS011;26823;42.662;23.352;2023-09-18T07:30:09;15.98;;;14.32;;
41077;SDS011;26823;42.662;23.352;2023-09-18T07:32:35;17.10;;;13.50;;
41077;SDS011;26823;42.662;23.352;2023-09-18T07:35:01;18.80;;;15.23;;
41077;SDS011;26823;42.662;23.352;2023-09-18T07:37:26;19.35;;;16.08;;
41077;SDS011;26823;42.662;23.352;2023-09-18T07:39:52;17.13;;;15.20;;
41077;SDS011;26823;42.662;23.352;2023-09-18T07:42:18;18.90;;;16.90;;
41077;SDS011;26823;42.662;23.352;2023-09-18T07:44:43;19.25;;;16.63;;
41077;SDS011;26823;42.662;23.352;2023-09-18T07:47:09;18.95;;;15.93;;
41077;SDS011;26823;42.662;23.352;2023-09-18T07:49:34;19.17;;;15.73;;
41077;SDS011;26823;42.662;23.352;2023-09-18T07:52:00;16.85;;;14.02;;
41077;SDS011;26823;42.662;23.352;2023-09-18T07:54:25;16.58;;;14.80;;
41077;SDS011;26823;42.662;23.352;2023-09-18T07:56:50;17.92;;;15.90;;
41077;SDS011;26823;42.662;23.352;2023-09-18T07:59:16;17.73;;;15.02;;
41077;SDS011;26823;42.662;23.352;2023-09-18T08:01:42;19.05;;;16.85;;
41077;SDS011;26823;42.662;23.352;2023-09-18T08:04:07;19.15;;;16.40;;
41077;SDS011;26823;42.662;23.352;2023-09-18T08:06:32;20.02;;;15.90;;
41077;SDS011;26823;42.662;23.352;2023-09-18T08:08:58;18.48;;;15.40;;
41077;SDS011;26823;42.662;23.352;2023-09-18T08:11:23;16.10;;;13.88;;
41077;SDS011;26823;42.662;23.352;2023-09-18T08:13:49;16.65;;;14.13;;
41077;SDS011;26823;42.662;23.352;2023-09-18T08:16:14;15.98;;;14.38;;
41077;SDS011;26823;42.662;23.352;2023-09-18T08:18:40;16.08;;;14.15;;
41077;SDS011;26823;42.662;23.352;2023-09-18T08:21:06;17.38;;;14.18;;
41077;SDS011;26823;42.662;23.352;2023-09-18T08:23:34;19.13;;;15.13;;
41077;SDS011;26823;42.662;23.352;2023-09-18T08:26:00;15.90;;;13.90;;
41077;SDS011;26823;42.662;23.352;2023-09-18T08:28:26;16.77;;;13.02;;
41077;SDS011;26823;42.662;23.352;2023-09-18T08:30:51;15.20;;;13.55;;
41077;SDS011;26823;42.662;23.352;2023-09-18T08:33:17;15.80;;;13.30;;
41077;SDS011;26823;42.662;23.352;2023-09-18T08:35:42;15.75;;;13.50;;
41077;SDS011;26823;42.662;23.352;2023-09-18T08:38:09;15.75;;;13.50;;
41077;SDS011;26823;42.662;23.352;2023-09-18T08:40:34;17.45;;;13.90;;
41077;SDS011;26823;42.662;23.352;2023-09-18T08:43:00;16.83;;;13.25;;
41077;SDS011;26823;42.662;23.352;2023-09-18T08:45:35;15.95;;;13.13;;
41077;SDS011;26823;42.662;23.352;2023-09-18T08:48:07;15.30;;;12.75;;
41077;SDS011;26823;42.662;23.352;2023-09-18T08:50:34;16.50;;;14.38;;
41077;SDS011;26823;42.662;23.352;2023-09-18T08:53:00;19.92;;;13.85;;
41077;SDS011;26823;42.662;23.352;2023-09-18T08:55:26;18.75;;;13.20;;
41077;SDS011;26823;42.662;23.352;2023-09-18T08:57:53;15.43;;;13.35;;
41077;SDS011;26823;42.662;23.352;2023-09-18T09:00:22;13.38;;;12.00;;
41077;SDS011;26823;42.662;23.352;2023-09-18T09:02:48;13.60;;;12.05;;
41077;SDS011;26823;42.662;23.352;2023-09-18T09:05:16;12.65;;;11.35;;
41077;SDS011;26823;42.662;23.352;2023-09-18T09:07:41;16.30;;;12.32;;
41077;SDS011;26823;42.662;23.352;2023-09-18T09:10:07;15.77;;;11.75;;
41077;SDS011;26823;42.662;23.352;2023-09-18T09:15:46;15.75;;;13.15;;
41077;SDS011;26823;42.662;23.352;2023-09-18T09:18:13;15.60;;;11.10;;
41077;SDS011;26823;42.662;23.352;2023-09-18T09:21:15;14.70;;;12.13;;
41077;SDS011;26823;42.662;23.352;2023-09-18T09:23:52;12.50;;;11.23;;
41077;SDS011;26823;42.662;23.352;2023-09-18T09:26:19;15.27;;;12.13;;
41077;SDS011;26823;42.662;23.352;2023-09-18T09:28:46;13.48;;;11.68;;
41077;SDS011;26823;42.662;23.352;2023-09-18T09:31:22;12.85;;;11.50;;
41077;SDS011;26823;42.662;23.352;2023-09-18T09:33:52;12.02;;;10.80;;
41077;SDS011;26823;42.662;23.352;2023-09-18T09:36:18;12.73;;;11.20;;
41077;SDS011;26823;42.662;23.352;2023-09-18T09:38:54;11.88;;;10.65;;
41077;SDS011;26823;42.662;23.352;2023-09-18T09:41:23;10.95;;;9.75;;
41077;SDS011;26823;42.662;23.352;2023-09-18T09:43:48;12.77;;;11.40;;
41077;SDS011;26823;42.662;23.352;2023-09-18T09:46:17;11.70;;;10.27;;
41077;SDS011;26823;42.662;23.352;2023-09-18T09:49:03;15.57;;;9.93;;
41077;SDS011;26823;42.662;23.352;2023-09-18T09:51:30;10.27;;;9.02;;
41077;SDS011;26823;42.662;23.352;2023-09-18T09:53:56;10.70;;;8.70;;
41077;SDS011;26823;42.662;23.352;2023-09-18T09:56:39;10.88;;;8.23;;
41077;SDS011;26823;42.662;23.352;2023-09-18T09:59:11;10.55;;;8.15;;
41077;SDS011;26823;42.662;23.352;2023-09-18T10:01:38;8.85;;;7.95;;
41077;SDS011;26823;42.662;23.352;2023-09-18T10:04:07;13.68;;;9.13;;
41077;SDS011;26823;42.662;23.352;2023-09-18T10:06:35;10.65;;;9.30;;
41077;SDS011;26823;42.662;23.352;2023-09-18T10:09:02;10.57;;;8.73;;
41077;SDS011;26823;42.662;23.352;2023-09-18T10:11:30;12.95;;;9.07;;
41077;SDS011;26823;42.662;23.352;2023-09-18T10:14:00;13.10;;;10.38;;
41077;SDS011;26823;42.662;23.352;2023-09-18T10:16:32;12.50;;;9.38;;
41077;SDS011;26823;42.662;23.352;2023-09-18T10:21:37;13.70;;;9.10;;
41077;SDS011;26823;42.662;23.352;2023-09-18T10:26:48;8.77;;;7.88;;
41077;SDS011;26823;42.662;23.352;2023-09-18T10:29:20;12.52;;;7.93;;
41077;SDS011;26823;42.662;23.352;2023-09-18T10:31:48;10.82;;;8.50;;
41077;SDS011;26823;42.662;23.352;2023-09-18T10:34:15;8.50;;;7.25;;
41077;SDS011;26823;42.662;23.352;2023-09-18T10:36:42;7.53;;;6.82;;
41077;SDS011;26823;42.662;23.352;2023-09-18T10:39:10;8.10;;;7.15;;
41077;SDS011;26823;42.662;23.352;2023-09-18T10:41:37;9.52;;;6.60;;
41077;SDS011;26823;42.662;23.352;2023-09-18T10:44:03;8.90;;;6.70;;
41077;SDS011;26823;42.662;23.352;2023-09-18T10:46:29;11.02;;;6.45;;
41077;SDS011;26823;42.662;23.352;2023-09-18T10:48:55;10.90;;;7.00;;
41077;SDS011;26823;42.662;23.352;2023-09-18T10:51:23;7.30;;;6.60;;
41077;SDS011;26823;42.662;23.352;2023-09-18T10:53:49;8.93;;;6.68;;
41077;SDS011;26823;42.662;23.352;2023-09-18T10:56:17;7.43;;;6.72;;
41077;SDS011;26823;42.662;23.352;2023-09-18T10:58:44;7.88;;;6.68;;
41077;SDS011;26823;42.662;23.352;2023-09-18T11:01:13;7.75;;;6.00;;
41077;SDS011;26823;42.662;23.352;2023-09-18T11:03:38;6.07;;;5.47;;
41077;SDS011;26823;42.662;23.352;2023-09-18T11:06:06;9.60;;;5.47;;
41077;SDS011;26823;42.662;23.352;2023-09-18T11:11:10;8.25;;;5.63;;
41077;SDS011;26823;42.662;23.352;2023-09-18T11:13:45;8.60;;;5.95;;
41077;SDS011;26823;42.662;23.352;2023-09-18T11:21:33;5.75;;;5.07;;
41077;SDS011;26823;42.662;23.352;2023-09-18T11:24:03;7.57;;;5.30;;
41077;SDS011;26823;42.662;23.352;2023-09-18T11:26:41;5.45;;;4.95;;
41077;SDS011;26823;42.662;23.352;2023-09-18T11:29:09;7.35;;;5.53;;
41077;SDS011;26823;42.662;23.352;2023-09-18T11:31:43;7.45;;;5.60;;
41077;SDS011;26823;42.662;23.352;2023-09-18T11:36:56;6.85;;;5.70;;
41077;SDS011;26823;42.662;23.352;2023-09-18T11:39:32;5.80;;;5.20;;
41077;SDS011;26823;42.662;23.352;2023-09-18T11:42:16;6.47;;;5.00;;
41077;SDS011;26823;42.662;23.352;2023-09-18T11:44:44;5.55;;;4.93;;
41077;SDS011;26823;42.662;23.352;2023-09-18T11:47:14;8.50;;;5.65;;
41077;SDS011;26823;42.662;23.352;2023-09-18T11:49:50;6.28;;;4.88;;
41077;SDS011;26823;42.662;23.352;2023-09-18T11:52:23;6.78;;;5.03;;
41077;SDS011;26823;42.662;23.352;2023-09-18T11:54:53;6.68;;;4.88;;
41077;SDS011;26823;42.662;23.352;2023-09-18T11:57:20;8.35;;;4.80;;
41077;SDS011;26823;42.662;23.352;2023-09-18T11:59:46;5.47;;;4.97;;
41077;SDS011;26823;42.662;23.352;2023-09-18T12:02:33;7.18;;;4.88;;
41077;SDS011;26823;42.662;23.352;2023-09-18T12:05:19;11.05;;;4.82;;
41077;SDS011;26823;42.662;23.352;2023-09-18T12:07:45;5.85;;;4.68;;
41077;SDS011;26823;42.662;23.352;2023-09-18T12:10:13;8.07;;;5.50;;
41077;SDS011;26823;42.662;23.352;2023-09-18T12:12:41;5.78;;;5.10;;
41077;SDS011;26823;42.662;23.352;2023-09-18T12:15:07;7.00;;;4.97;;
41077;SDS011;26823;42.662;23.352;2023-09-18T12:17:36;6.10;;;5.47;;
41077;SDS011;26823;42.662;23.352;2023-09-18T12:20:02;7.15;;;4.43;;
41077;SDS011;26823;42.662;23.352;2023-09-18T12:22:29;5.43;;;4.70;;
41077;SDS011;26823;42.662;23.352;2023-09-18T12:27:54;5.43;;;4.93;;
41077;SDS011;26823;42.662;23.352;2023-09-18T12:30:20;7.05;;;4.93;;
41077;SDS011;26823;42.662;23.352;2023-09-18T12:32:47;6.68;;;5.07;;
41077;SDS011;26823;42.662;23.352;2023-09-18T12:35:14;5.85;;;5.28;;
41077;SDS011;26823;42.662;23.352;2023-09-18T12:37:40;5.45;;;4.88;;
41077;SDS011;26823;42.662;23.352;2023-09-18T12:40:06;6.70;;;4.78;;
41077;SDS011;26823;42.662;23.352;2023-09-18T12:42:51;6.50;;;5.45;;
41077;SDS011;26823;42.662;23.352;2023-09-18T12:45:18;5.68;;;4.80;;
41077;SDS011;26823;42.662;23.352;2023-09-18T12:47:44;7.28;;;4.95;;
41077;SDS011;26823;42.662;23.352;2023-09-18T12:50:13;6.07;;;5.20;;
41077;SDS011;26823;42.662;23.352;2023-09-18T12:52:40;5.50;;;5.00;;
41077;SDS011;26823;42.662;23.352;2023-09-18T12:55:06;6.22;;;5.40;;
41077;SDS011;26823;42.662;23.352;2023-09-18T12:57:34;5.78;;;4.82;;
41077;SDS011;26823;42.662;23.352;2023-09-18T13:00:07;8.35;;;5.47;;
41077;SDS011;26823;42.662;23.352;2023-09-18T13:02:36;6.15;;;5.55;;
41077;SDS011;26823;42.662;23.352;2023-09-18T13:05:03;5.50;;;5.00;;
41077;SDS011;26823;42.662;23.352;2023-09-18T13:07:28;8.32;;;5.50;;
41077;SDS011;26823;42.662;23.352;2023-09-18T13:10:02;7.35;;;5.10;;
41077;SDS011;26823;42.662;23.352;2023-09-18T13:15:23;7.25;;;5.20;;
41077;SDS011;26823;42.662;23.352;2023-09-18T13:17:59;8.27;;;5.35;;
41077;SDS011;26823;42.662;23.352;2023-09-18T13:20:29;9.20;;;5.30;;
41077;SDS011;26823;42.662;23.352;2023-09-18T13:22:58;8.13;;;5.05;;
41077;SDS011;26823;42.662;23.352;2023-09-18T13:25:27;6.72;;;4.90;;
41077;SDS011;26823;42.662;23.352;2023-09-18T13:27:54;8.00;;;4.63;;
41077;SDS011;26823;42.662;23.352;2023-09-18T13:30:20;4.30;;;3.90;;
41077;SDS011;26823;42.662;23.352;2023-09-18T13:32:47;6.28;;;5.20;;
41077;SDS011;26823;42.662;23.352;2023-09-18T13:35:14;7.10;;;5.30;;
41077;SDS011;26823;42.662;23.352;2023-09-18T13:37:43;5.22;;;4.28;;
41077;SDS011;26823;42.662;23.352;2023-09-18T13:40:15;4.22;;;3.90;;
41077;SDS011;26823;42.662;23.352;2023-09-18T13:42:40;6.03;;;4.97;;
41077;SDS011;26823;42.662;23.352;2023-09-18T13:45:06;5.68;;;4.13;;
41077;SDS011;26823;42.662;23.352;2023-09-18T13:47:33;6.63;;;4.75;;
41077;SDS011;26823;42.662;23.352;2023-09-18T13:49:59;6.75;;;5.00;;
41077;SDS011;26823;42.662;23.352;2023-09-18T13:52:26;5.18;;;4.68;;
41077;SDS011;26823;42.662;23.352;2023-09-18T13:54:52;5.53;;;4.65;;
41077;SDS011;26823;42.662;23.352;2023-09-18T13:57:18;7.97;;;4.82;;
41077;SDS011;26823;42.662;23.352;2023-09-18T13:59:50;5.95;;;4.68;;
41077;SDS011;26823;42.662;23.352;2023-09-18T14:02:22;5.35;;;4.85;;
41077;SDS011;26823;42.662;23.352;2023-09-18T14:04:52;5.93;;;4.28;;
41077;SDS011;26823;42.662;23.352;2023-09-18T14:07:17;7.30;;;5.18;;
41077;SDS011;26823;42.662;23.352;2023-09-18T14:09:43;5.90;;;5.30;;
41077;SDS011;26823;42.662;23.352;2023-09-18T14:12:08;7.60;;;4.63;;
41077;SDS011;26823;42.662;23.352;2023-09-18T14:14:33;4.90;;;4.40;;
41077;SDS011;26823;42.662;23.352;2023-09-18T14:17:00;5.38;;;4.88;;
41077;SDS011;26823;42.662;23.352;2023-09-18T14:19:26;8.48;;;5.30;;
41077;SDS011;26823;42.662;23.352;2023-09-18T14:21:51;6.35;;;4.93;;
41077;SDS011;26823;42.662;23.352;2023-09-18T14:24:17;7.97;;;5.15;;
41077;SDS011;26823;42.662;23.352;2023-09-18T14:26:49;6.07;;;5.03;;
41077;SDS011;26823;42.662;23.352;2023-09-18T14:29:15;8.05;;;4.95;;
41077;SDS011;26823;42.662;23.352;2023-09-18T14:31:41;10.95;;;5.10;;
41077;SDS011;26823;42.662;23.352;2023-09-18T14:34:07;7.70;;;4.90;;
41077;SDS011;26823;42.662;23.352;2023-09-18T14:36:33;6.75;;;4.88;;
41077;SDS011;26823;42.662;23.352;2023-09-18T14:38:59;7.32;;;5.15;;
41077;SDS011;26823;42.662;23.352;2023-09-18T14:41:25;6.07;;;4.85;;
41077;SDS011;26823;42.662;23.352;2023-09-18T14:43:51;8.40;;;5.03;;
41077;SDS011;26823;42.662;23.352;2023-09-18T14:46:17;6.95;;;5.30;;
41077;SDS011;26823;42.662;23.352;2023-09-18T14:48:43;10.90;;;5.32;;